createdAt,value
2022-11-30T00:02:16.980Z,70.10
2022-11-30T00:04:47.992Z,70.40
2022-11-30T00:07:18.956Z,70.60
2022-11-30T00:09:50.785Z,70.80
2022-11-30T00:12:22.722Z,68.70
2022-11-30T00:14:53.040Z,71.10
2022-11-30T00:17:23.602Z,69.70
2022-11-30T00:19:54.629Z,69.20
2022-11-30T00:22:26.232Z,68.60
2022-11-30T00:24:56.886Z,69.60
2022-11-30T00:27:27.796Z,68.90
2022-11-30T00:29:59.031Z,69.50
2022-11-30T00:32:30.328Z,69.00
2022-11-30T00:35:00.630Z,68.40
2022-11-30T00:37:31.639Z,67.30
2022-11-30T00:40:02.082Z,68.10
2022-11-30T00:42:32.434Z,67.90
2022-11-30T00:45:03.297Z,67.60
2022-11-30T00:47:33.552Z,66.40
2022-11-30T00:50:04.024Z,67.40
2022-11-30T00:52:34.199Z,66.80
2022-11-30T00:55:05.585Z,67.50
2022-11-30T00:57:35.888Z,68.30
2022-11-30T01:00:07.325Z,67.60
2022-11-30T01:02:37.929Z,67.10
2022-11-30T01:05:09.530Z,68.30
2022-11-30T01:07:41.480Z,67.90
2022-11-30T01:10:12.881Z,68.90
2022-11-30T01:12:43.691Z,66.40
2022-11-30T01:15:15.236Z,66.20
2022-11-30T01:17:46.723Z,67.40
2022-11-30T01:20:17.581Z,65.70
2022-11-30T01:22:50.593Z,66.20
2022-11-30T01:25:21.675Z,66.40
2022-11-30T01:27:52.352Z,64.80
2022-11-30T01:30:22.746Z,65.50
2022-11-30T01:32:53.396Z,66.40
2022-11-30T01:35:23.724Z,66.70
2022-11-30T01:37:54.397Z,66.00
2022-11-30T01:40:25.687Z,64.90
2022-11-30T01:42:55.902Z,66.50
2022-11-30T01:45:27.048Z,64.40
2022-11-30T01:47:59.709Z,66.40
2022-11-30T01:50:37.817Z,65.50
2022-11-30T01:53:13.141Z,64.60
2022-11-30T01:55:46.204Z,64.10
2022-11-30T01:58:26.834Z,65.30
2022-11-30T02:00:57.790Z,65.10
2022-11-30T02:03:48.925Z,63.60
2022-11-30T02:06:20.083Z,63.80
2022-11-30T02:08:50.856Z,64.90
2022-11-30T02:11:21.651Z,64.50
2022-11-30T02:14:12.153Z,62.70
2022-11-30T02:16:51.863Z,61.50
2022-11-30T02:19:46.634Z,62.20
2022-11-30T02:22:53.365Z,63.50
2022-11-30T02:25:40.123Z,62.50
2022-11-30T02:28:13.344Z,62.30
2022-11-30T02:30:50.739Z,63.20
2022-11-30T02:33:27.712Z,60.20
2022-11-30T02:35:59.269Z,61.30
2022-11-30T02:38:30.563Z,62.10
2022-11-30T02:41:00.722Z,61.20
2022-11-30T02:43:33.496Z,61.20
2022-11-30T02:46:29.531Z,60.90
2022-11-30T02:49:02.248Z,58.70
2022-11-30T02:51:34.858Z,58.70
2022-11-30T02:54:06.047Z,61.70
2022-11-30T02:56:37.116Z,60.80
2022-11-30T02:59:09.779Z,60.10
2022-11-30T03:01:41.662Z,59.70
2022-11-30T03:04:12.123Z,59.90
2022-11-30T03:06:44.122Z,59.10
2022-11-30T03:09:16.785Z,57.70
2022-11-30T03:11:47.750Z,59.70
2022-11-30T03:14:20.102Z,59.60
2022-11-30T03:16:50.405Z,60.20
2022-11-30T03:19:21.858Z,58.00
2022-11-30T03:21:52.694Z,59.10
2022-11-30T03:24:23.535Z,58.60
2022-11-30T03:26:54.261Z,58.00
2022-11-30T03:29:26.289Z,59.10
2022-11-30T03:31:56.478Z,58.10
2022-11-30T03:34:29.521Z,57.90
2022-11-30T03:37:00.211Z,58.30
2022-11-30T03:39:30.949Z,58.80
2022-11-30T03:42:01.188Z,55.80
2022-11-30T03:44:32.335Z,58.60
2022-11-30T03:47:04.515Z,59.80
2022-11-30T03:49:35.128Z,59.10
2022-11-30T03:52:06.733Z,58.90
2022-11-30T03:54:37.421Z,57.70
2022-11-30T03:57:07.665Z,57.90
2022-11-30T03:59:38.208Z,57.20
2022-11-30T04:02:08.867Z,57.10
2022-11-30T04:04:39.538Z,57.00
2022-11-30T04:07:09.729Z,58.60
2022-11-30T04:09:39.913Z,58.60
2022-11-30T04:12:10.342Z,58.20
2022-11-30T04:14:41.612Z,55.90
2022-11-30T04:17:11.844Z,58.50
2022-11-30T04:19:42.707Z,58.90
2022-11-30T04:22:13.076Z,59.00
2022-11-30T04:24:43.483Z,58.70
2022-11-30T04:27:13.778Z,60.00
2022-11-30T04:29:44.650Z,60.00
2022-11-30T04:32:15.122Z,59.40
2022-11-30T04:34:45.804Z,60.10
2022-11-30T04:37:16.166Z,60.10
2022-11-30T04:39:56.970Z,59.80
2022-11-30T04:42:27.679Z,58.20
2022-11-30T04:44:57.880Z,58.00
2022-11-30T04:47:28.545Z,59.60
2022-11-30T04:49:59.900Z,59.00
2022-11-30T04:52:31.013Z,59.30
2022-11-30T04:55:05.451Z,58.70
2022-11-30T04:57:43.170Z,58.50
2022-11-30T05:00:15.100Z,58.80
2022-11-30T05:02:52.889Z,59.60
2022-11-30T05:05:23.587Z,59.70
2022-11-30T05:08:02.352Z,60.50
2022-11-30T05:10:35.461Z,59.90
2022-11-30T05:13:06.250Z,60.70
2022-11-30T05:15:36.600Z,60.00
2022-11-30T05:18:06.887Z,60.30
2022-11-30T05:20:37.429Z,60.60
2022-11-30T05:23:08.241Z,61.20
2022-11-30T05:25:38.492Z,61.90
2022-11-30T05:28:09.213Z,62.20
2022-11-30T05:30:41.211Z,61.70
2022-11-30T05:33:12.244Z,62.40
2022-11-30T05:35:43.463Z,62.90
2022-11-30T05:41:07.578Z,61.50
2022-11-30T05:51:50.972Z,61.50
2022-11-30T05:54:21.844Z,62.30
2022-11-30T05:56:54.948Z,60.20
2022-11-30T05:59:27.476Z,60.30
2022-11-30T06:02:07.221Z,60.70
2022-11-30T06:04:38.509Z,60.80
2022-11-30T06:07:14.522Z,60.40
2022-11-30T06:09:45.870Z,60.20
2022-11-30T06:12:16.646Z,61.10
2022-11-30T06:14:47.147Z,61.70
2022-11-30T06:17:18.334Z,61.60
2022-11-30T06:19:48.748Z,61.90
2022-11-30T06:22:19.580Z,61.70
2022-11-30T06:24:50.013Z,61.60
2022-11-30T06:27:21.534Z,61.50
2022-11-30T06:29:53.820Z,61.80
2022-11-30T06:32:28.371Z,61.90
2022-11-30T06:35:10.700Z,61.50
2022-11-30T06:37:57.405Z,62.70
2022-11-30T06:43:25.740Z,63.50
2022-11-30T06:45:57.405Z,64.00
2022-11-30T06:48:30.263Z,64.00
2022-11-30T06:53:57.436Z,63.50
2022-11-30T06:59:23.512Z,63.50
2022-11-30T07:04:39.868Z,65.70
2022-11-30T07:07:12.819Z,65.80
2022-11-30T07:09:55.737Z,66.30
2022-11-30T07:12:40.523Z,67.30
2022-11-30T07:15:13.110Z,67.10
2022-11-30T07:20:32.944Z,67.40
2022-11-30T07:23:21.980Z,68.80
2022-11-30T07:26:13.553Z,68.30
2022-11-30T07:28:48.431Z,68.70
2022-11-30T07:31:45.543Z,69.40
2022-11-30T07:34:17.525Z,69.10
2022-11-30T07:36:54.135Z,68.70
2022-11-30T07:39:33.472Z,68.10
2022-11-30T07:42:07.841Z,69.00
2022-11-30T07:44:43.318Z,69.60
2022-11-30T07:47:13.616Z,69.80
2022-11-30T07:49:44.643Z,70.30
2022-11-30T07:52:14.991Z,70.90
2022-11-30T07:54:45.374Z,71.60
2022-11-30T07:57:16.584Z,71.10
2022-11-30T07:59:50.415Z,70.90
2022-11-30T08:02:23.797Z,71.40
2022-11-30T08:04:58.149Z,72.00
2022-11-30T08:07:29.344Z,71.50
2022-11-30T08:10:01.033Z,72.80
2022-11-30T08:12:32.338Z,72.00
2022-11-30T08:15:20.975Z,73.00
2022-11-30T08:17:57.112Z,72.50
2022-11-30T08:20:28.914Z,72.00
2022-11-30T08:23:01.512Z,72.80
2022-11-30T08:25:34.524Z,72.80
2022-11-30T08:28:06.263Z,73.10
2022-11-30T08:30:41.514Z,73.30
2022-11-30T08:33:12.228Z,73.70
2022-11-30T08:35:42.512Z,73.50
2022-11-30T08:38:13.013Z,73.30
2022-11-30T08:40:44.104Z,72.90
2022-11-30T08:43:15.731Z,73.40
2022-11-30T08:45:51.439Z,74.30
2022-11-30T08:48:26.752Z,74.40
2022-11-30T08:50:58.352Z,73.50
2022-11-30T08:53:29.490Z,74.50
2022-11-30T08:56:07.566Z,74.40
2022-11-30T08:58:41.198Z,74.50
2022-11-30T09:01:28.355Z,75.00
2022-11-30T09:04:03.501Z,75.30
2022-11-30T09:06:35.594Z,75.70
2022-11-30T09:09:06.139Z,75.90
2022-11-30T09:11:37.277Z,76.30
2022-11-30T09:14:08.618Z,76.40
2022-11-30T09:16:39.035Z,76.10
2022-11-30T09:19:09.363Z,75.60
2022-11-30T09:21:39.802Z,76.20
2022-11-30T09:24:10.315Z,76.00
2022-11-30T09:26:40.839Z,75.80
2022-11-30T09:29:11.560Z,76.60
2022-11-30T09:31:44.204Z,76.20
2022-11-30T09:34:15.698Z,77.00
2022-11-30T09:36:46.093Z,76.00
2022-11-30T09:39:16.351Z,76.40
2022-11-30T09:42:16.047Z,76.90
2022-11-30T09:44:50.747Z,76.10
2022-11-30T09:47:36.342Z,77.00
2022-11-30T09:50:33.596Z,77.00
2022-11-30T09:53:13.243Z,76.60
2022-11-30T09:55:46.124Z,77.00
2022-11-30T09:58:49.042Z,77.50
2022-11-30T10:01:24.254Z,78.40
2022-11-30T10:03:54.732Z,78.30
2022-11-30T10:06:36.351Z,78.70
2022-11-30T10:09:27.148Z,79.30
2022-11-30T10:12:16.847Z,79.50
2022-11-30T10:15:00.528Z,80.10
2022-11-30T10:17:52.777Z,80.30
2022-11-30T10:20:48.542Z,80.70
2022-11-30T10:23:47.161Z,81.10
2022-11-30T10:26:40.630Z,81.20
2022-11-30T10:29:23.293Z,81.80
2022-11-30T10:31:59.794Z,82.30
2022-11-30T10:34:39.582Z,82.30
2022-11-30T10:37:15.728Z,82.70
2022-11-30T10:40:00.263Z,83.40
2022-11-30T10:42:52.644Z,83.40
2022-11-30T10:45:27.444Z,82.80
2022-11-30T10:48:01.434Z,83.50
2022-11-30T10:50:34.367Z,83.80
2022-11-30T10:53:05.646Z,83.70
2022-11-30T10:55:59.387Z,83.90
2022-11-30T10:58:34.383Z,83.60
2022-11-30T11:01:42.049Z,83.90
2022-11-30T11:04:29.666Z,84.00
2022-11-30T11:07:07.637Z,84.30
2022-11-30T11:09:51.408Z,85.00
2022-11-30T11:12:27.287Z,85.00
2022-11-30T11:15:27.411Z,84.60
2022-11-30T11:18:15.132Z,84.40
2022-11-30T11:20:47.955Z,84.10
2022-11-30T11:23:35.444Z,85.10
2022-11-30T11:26:05.959Z,85.10
2022-11-30T11:28:38.913Z,85.20
2022-11-30T11:31:35.131Z,85.10
2022-11-30T11:34:06.479Z,84.80
2022-11-30T11:36:40.408Z,84.80
2022-11-30T11:39:28.699Z,84.70
2022-11-30T11:41:59.571Z,85.70
2022-11-30T11:44:31.974Z,85.20
2022-11-30T11:47:09.786Z,85.10
2022-11-30T11:49:41.646Z,85.10
2022-11-30T11:52:14.931Z,85.20
2022-11-30T11:54:51.130Z,84.90
2022-11-30T11:57:30.421Z,84.90
2022-11-30T12:00:19.480Z,85.20
2022-11-30T12:03:16.667Z,85.70
2022-11-30T12:05:59.908Z,85.80
2022-11-30T12:09:15.957Z,85.80
2022-11-30T12:11:49.216Z,86.10
2022-11-30T12:14:21.958Z,86.20
2022-11-30T12:16:58.377Z,86.20
2022-11-30T12:19:48.996Z,86.50
2022-11-30T12:22:22.230Z,86.50
2022-11-30T12:25:06.201Z,87.60
2022-11-30T12:28:04.031Z,86.90
2022-11-30T12:30:55.284Z,86.90
2022-11-30T12:33:36.725Z,86.80
2022-11-30T12:36:38.620Z,86.90
2022-11-30T12:39:17.432Z,87.00
2022-11-30T12:42:15.049Z,87.10
2022-11-30T12:45:09.737Z,87.20
2022-11-30T12:48:01.145Z,87.50
2022-11-30T12:50:57.215Z,87.80
2022-11-30T12:53:35.821Z,88.10
2022-11-30T12:56:30.134Z,88.10
2022-11-30T12:59:09.794Z,88.20
2022-11-30T13:01:58.255Z,88.10
2022-11-30T13:04:42.534Z,88.10
2022-11-30T13:07:19.879Z,87.80
2022-11-30T13:10:04.704Z,88.00
2022-11-30T13:12:41.354Z,88.00
2022-11-30T13:15:24.783Z,88.30
2022-11-30T13:17:56.296Z,88.40
2022-11-30T13:20:40.855Z,88.50
2022-11-30T13:23:37.718Z,88.30
2022-11-30T13:26:37.312Z,88.20
2022-11-30T13:29:26.081Z,88.50
2022-11-30T13:32:14.015Z,88.10
2022-11-30T13:34:53.074Z,88.20
2022-11-30T13:37:27.465Z,89.10
2022-11-30T13:40:03.605Z,88.90
2022-11-30T13:42:51.732Z,88.90
2022-11-30T13:45:34.315Z,88.90
2022-11-30T13:48:34.642Z,89.10
2022-11-30T13:51:05.440Z,89.40
2022-11-30T13:53:39.414Z,89.40
2022-11-30T13:56:22.696Z,89.70
2022-11-30T13:59:26.506Z,90.10
2022-11-30T14:02:35.266Z,90.20
2022-11-30T14:05:21.082Z,90.20
2022-11-30T14:07:54.628Z,90.30
2022-11-30T14:10:40.210Z,90.40
2022-11-30T14:13:14.965Z,90.40
2022-11-30T14:15:56.719Z,90.40
2022-11-30T14:18:44.830Z,90.40
2022-11-30T14:21:28.290Z,90.50
2022-11-30T14:24:06.010Z,90.40
2022-11-30T14:26:44.347Z,90.50
2022-11-30T14:29:27.265Z,90.60
2022-11-30T14:32:09.959Z,90.50
2022-11-30T14:34:46.511Z,90.60
2022-11-30T14:37:33.774Z,90.50
2022-11-30T14:40:07.869Z,90.40
2022-11-30T14:42:39.506Z,90.40
2022-11-30T14:45:28.726Z,90.20
2022-11-30T14:48:19.889Z,90.20
2022-11-30T14:50:57.533Z,90.20
2022-11-30T14:53:54.750Z,90.20
2022-11-30T14:56:51.442Z,90.10
2022-11-30T14:59:51.123Z,90.00
2022-11-30T15:02:39.141Z,90.00
2022-11-30T15:05:11.521Z,89.50
2022-11-30T15:07:44.898Z,89.50
2022-11-30T15:10:35.627Z,89.60
2022-11-30T15:13:06.891Z,89.60
2022-11-30T15:15:41.837Z,89.40
2022-11-30T15:18:23.265Z,89.20
2022-11-30T15:21:08.708Z,89.20
2022-11-30T15:23:39.062Z,88.80
2022-11-30T15:26:23.048Z,89.00
2022-11-30T15:29:09.923Z,89.00
2022-11-30T15:31:44.440Z,88.40
2022-11-30T15:34:37.133Z,89.00
2022-11-30T15:37:09.358Z,89.10
2022-11-30T15:39:41.013Z,89.70
2022-11-30T15:42:21.048Z,89.70
2022-11-30T15:44:51.291Z,89.60
2022-11-30T15:47:48.264Z,90.00
2022-11-30T15:50:30.471Z,90.10
2022-11-30T15:53:06.380Z,89.80
2022-11-30T15:55:54.801Z,90.10
2022-11-30T15:58:32.359Z,90.10
2022-11-30T16:01:13.465Z,89.80
2022-11-30T16:03:59.861Z,90.20
2022-11-30T16:06:34.844Z,90.10
2022-11-30T16:09:22.233Z,90.10
2022-11-30T16:12:06.331Z,90.20
2022-11-30T16:14:37.030Z,90.20
2022-11-30T16:17:09.123Z,90.30
2022-11-30T16:19:39.605Z,90.40
2022-11-30T16:22:13.963Z,90.40
2022-11-30T16:24:44.492Z,90.50
2022-11-30T16:27:24.093Z,90.60
2022-11-30T16:29:55.258Z,90.60
2022-11-30T16:32:25.877Z,90.80
2022-11-30T16:34:56.596Z,90.70
2022-11-30T16:37:26.815Z,90.80
2022-11-30T16:39:57.039Z,90.70
2022-11-30T16:42:27.261Z,90.70
2022-11-30T16:44:57.953Z,90.80
2022-11-30T16:47:28.684Z,90.80
2022-11-30T16:49:59.299Z,90.70
2022-11-30T16:52:29.593Z,90.40
2022-11-30T16:55:00.362Z,90.40
2022-11-30T16:57:30.619Z,90.40
2022-11-30T17:00:00.884Z,90.40
2022-11-30T17:02:31.239Z,90.10
2022-11-30T17:05:02.341Z,90.30
2022-11-30T17:07:33.249Z,90.40
2022-11-30T17:10:03.552Z,90.40
2022-11-30T17:12:34.229Z,90.30
2022-11-30T17:15:05.428Z,90.30
2022-11-30T17:17:36.202Z,90.00
2022-11-30T17:20:10.803Z,90.20
2022-11-30T17:22:41.672Z,90.00
2022-11-30T17:25:18.265Z,89.80
2022-11-30T17:27:49.774Z,89.90
2022-11-30T17:30:23.625Z,90.00
2022-11-30T17:32:54.008Z,90.00
2022-11-30T17:35:24.384Z,89.90
2022-11-30T17:37:56.295Z,89.60
2022-11-30T17:40:26.601Z,89.60
2022-11-30T17:42:56.948Z,90.10
2022-11-30T17:45:27.255Z,89.60
2022-11-30T17:47:59.176Z,89.30
2022-11-30T17:50:29.453Z,89.60
2022-11-30T17:52:59.864Z,89.60
2022-11-30T17:55:30.144Z,89.70
2022-11-30T17:58:00.398Z,89.90
2022-11-30T18:00:30.794Z,89.90
2022-11-30T18:03:01.150Z,89.80
2022-11-30T18:05:31.500Z,89.70
2022-11-30T18:08:02.802Z,89.80
2022-11-30T18:10:32.995Z,88.70
2022-11-30T18:13:03.264Z,89.10
2022-11-30T18:15:33.553Z,89.20
2022-11-30T18:18:04.815Z,88.90
2022-11-30T18:20:35.176Z,89.70
2022-11-30T18:23:09.866Z,89.70
2022-11-30T18:25:43.762Z,89.50
2022-11-30T18:28:13.981Z,89.90
2022-11-30T18:30:44.368Z,90.00
2022-11-30T18:33:14.604Z,90.00
2022-11-30T18:35:45.353Z,90.00
2022-11-30T18:38:17.450Z,90.00
2022-11-30T18:40:48.091Z,89.80
2022-11-30T18:43:18.314Z,90.00
2022-11-30T18:45:48.845Z,89.90
2022-11-30T18:48:19.359Z,90.00
2022-11-30T18:50:49.718Z,90.20
2022-11-30T18:53:19.953Z,90.10
2022-11-30T18:55:50.329Z,90.30
2022-11-30T18:58:21.065Z,90.10
2022-11-30T19:00:51.415Z,90.20
2022-11-30T19:03:21.679Z,89.90
2022-11-30T19:05:52.248Z,89.60
2022-11-30T19:08:28.032Z,89.80
2022-11-30T19:11:05.284Z,89.40
2022-11-30T19:13:36.803Z,89.00
2022-11-30T19:16:09.838Z,89.60
2022-11-30T19:18:40.655Z,89.30
2022-11-30T19:21:21.557Z,89.70
2022-11-30T19:23:52.639Z,90.20
2022-11-30T19:26:23.386Z,90.30
2022-11-30T19:28:59.105Z,90.40
2022-11-30T19:31:30.550Z,90.00
2022-11-30T19:34:01.143Z,90.00
2022-11-30T19:36:33.217Z,90.50
2022-11-30T19:39:04.700Z,90.40
2022-11-30T19:41:36.234Z,90.60
2022-11-30T19:44:07.265Z,90.30
2022-11-30T19:46:37.565Z,90.50
2022-11-30T19:49:10.164Z,90.20
2022-11-30T19:51:40.680Z,90.20
2022-11-30T19:54:11.364Z,90.20
2022-11-30T19:56:43.581Z,90.20
2022-11-30T19:59:13.809Z,90.10
2022-11-30T20:01:45.004Z,90.00
2022-11-30T20:04:15.904Z,90.00
2022-11-30T20:06:46.902Z,90.10
2022-11-30T20:09:18.786Z,90.30
2022-11-30T20:11:49.654Z,90.30
2022-11-30T20:14:20.431Z,90.40
2022-11-30T20:16:51.061Z,90.30
2022-11-30T20:19:21.418Z,90.20
2022-11-30T20:21:51.838Z,90.40
2022-11-30T20:24:23.663Z,90.20
2022-11-30T20:26:54.010Z,90.00
2022-11-30T20:29:24.307Z,89.60
2022-11-30T20:31:54.627Z,89.60
2022-11-30T20:34:29.746Z,90.00
2022-11-30T20:37:03.628Z,89.10
2022-11-30T20:39:34.937Z,89.80
2022-11-30T20:42:05.604Z,89.00
2022-11-30T20:44:35.899Z,88.90
2022-11-30T20:47:06.878Z,88.60
2022-11-30T20:49:37.372Z,88.40
2022-11-30T20:52:07.836Z,87.60
2022-11-30T20:54:38.617Z,87.00
2022-11-30T20:57:09.342Z,87.50
2022-11-30T20:59:41.595Z,86.90
2022-11-30T21:02:13.338Z,86.80
2022-11-30T21:04:44.020Z,86.50
2022-11-30T21:07:14.690Z,86.10
2022-11-30T21:09:45.083Z,86.70
2022-11-30T21:12:15.828Z,86.20
2022-11-30T21:14:46.809Z,86.90
2022-11-30T21:17:17.257Z,86.30
2022-11-30T21:19:48.715Z,85.30
2022-11-30T21:22:18.985Z,83.50
2022-11-30T21:24:51.367Z,83.10
2022-11-30T21:27:21.699Z,82.30
2022-11-30T21:30:04.437Z,82.60
2022-11-30T21:32:35.464Z,82.20
2022-11-30T21:35:06.151Z,80.30
2022-11-30T21:37:36.615Z,81.00
2022-11-30T21:40:07.271Z,82.40
2022-11-30T21:42:37.903Z,82.50
2022-11-30T21:45:08.520Z,82.50
2022-11-30T21:47:38.972Z,83.00
2022-11-30T21:50:09.945Z,82.20
2022-11-30T21:52:40.263Z,82.50
2022-11-30T21:55:10.850Z,83.00
2022-11-30T21:57:41.123Z,82.90
2022-11-30T22:00:12.950Z,81.60
2022-11-30T22:02:47.467Z,81.50
2022-11-30T22:05:17.821Z,82.30
2022-11-30T22:07:48.816Z,81.70
2022-11-30T22:10:19.278Z,81.50
2022-11-30T22:12:49.476Z,82.60
2022-11-30T22:15:19.873Z,82.10
2022-11-30T22:17:50.084Z,81.70
2022-11-30T22:20:20.621Z,80.50
2022-11-30T22:22:51.268Z,80.70
2022-11-30T22:25:22.629Z,80.80
2022-11-30T22:27:56.252Z,81.30
2022-11-30T22:30:26.623Z,80.90
2022-11-30T22:32:57.230Z,80.60
2022-11-30T22:35:27.597Z,75.60
2022-11-30T22:37:58.027Z,74.10
2022-11-30T22:40:29.047Z,74.80
2022-11-30T22:42:59.283Z,74.90
2022-11-30T22:45:29.590Z,75.50
2022-11-30T22:47:59.865Z,75.70
2022-11-30T22:50:30.115Z,76.40
2022-11-30T22:53:03.221Z,75.80
2022-11-30T22:55:35.394Z,75.50
2022-11-30T22:58:13.886Z,73.60
2022-11-30T23:00:47.185Z,74.40
2022-11-30T23:03:17.516Z,74.20
2022-11-30T23:05:48.239Z,73.80
2022-11-30T23:08:32.556Z,74.80
2022-11-30T23:11:14.033Z,73.00
2022-11-30T23:13:47.464Z,74.20
2022-11-30T23:16:19.436Z,74.50
2022-11-30T23:18:54.073Z,74.50
2022-11-30T23:21:40.663Z,73.90
2022-11-30T23:24:19.028Z,73.80
2022-11-30T23:26:49.841Z,74.70
2022-11-30T23:29:20.629Z,74.00
2022-11-30T23:31:51.546Z,73.90
2022-11-30T23:34:24.116Z,75.00
2022-11-30T23:36:57.603Z,75.00
2022-11-30T23:39:29.552Z,75.10
2022-11-30T23:42:00.548Z,75.90
2022-11-30T23:44:31.234Z,74.30
2022-11-30T23:47:01.915Z,73.80
2022-11-30T23:49:32.533Z,74.60
2022-11-30T23:52:03.198Z,74.70
2022-11-30T23:54:35.012Z,73.80
2022-11-30T23:57:07.659Z,74.30
2022-11-30T23:59:38.403Z,73.90
